CZFN/ZFN METAR and TAF weather

Enter ICAO airport designator
Station Type Date Time Source
CZFN METAR 2021/03/03 00:00 UTC NOAA

CZFN 030000Z 23006KT 15SM FEW040 BKN100 M23/M27 A2954 RMK SC2AS4 AS AC ASSOCIATED LAST STFD OBS NEXT 031600 SLP019


Station Type Date Time Source
CZFN Decoded METAR 2021/03/03 00:00 UTC NOAA

Fort Norman Airport, Canada (CZFN) 64-55N 125-34W
Mar 02, 2021 - 07:00 PM EST / 2021.03.03 0000 UTC
Wind: from the SW (230 degrees) at 7 MPH (6 KT):0
Visibility: 15 mile(s):0
Sky conditions: mostly cloudy
Temperature: -9 F (-23 C)
Windchill: -23 F (-31 C):2
Dew Point: -16 F (-27 C)
Relative Humidity: 69%
Pressure (altimeter): 29.54 in. Hg (1000 hPa)
ob: CZFN 030000Z 23006KT 15SM FEW040 BKN100 M23/M27 A2954 RMK SC2AS4 AS AC ASSOCIATED LAST STFD OBS NEXT 031600 SLP019
cycle: 0

Station Type Date Time Source
CZFN TAF UTC NOAA

Error!

Example: see airport list